LEJR

Jerez Airport

Jerez de la Forntera, Spain
METAR LEJR 171900Z 14011KT 110V180 CAVOK 17/14 Q1009
Observed Flight Rules
Nov-17 @ 19:00 UTC (27 minutes ago) Visual Flight Rules
Wind Visibility Clouds
140° at 11 knots 10,000+ meters
  • Clear skies
Temperatures Readings
Current 17°C / 63°F
Dewpoint 14°C / 57°F
Humidity 83%
Altimeter 29.79" Hg
Pressure 1009 hPa
Elevation 30
METAR LEJR 171900Z 14011KT 110V180 CAVOK 17/14 Q1009
Observed Flight Rules
Nov-17 @ 19:00 UTC
(27 minutes ago)
VFR
Wind Visibility
140° at 11 knots 10,000+ meters
Clouds
  • Clear skies
Temperature Dewpoint
17°C / 63°F 14°C / 57°F
Humidity Altimeter Pressure
83% 29.79" Hg 1009 hPa